createdAt,value
2023-03-01T00:00:33.715Z,0.00
2023-03-01T00:01:33.698Z,0.00
2023-03-01T00:02:33.704Z,0.00
2023-03-01T00:03:33.716Z,0.00
2023-03-01T00:04:33.656Z,0.00
2023-03-01T00:05:33.639Z,0.00
2023-03-01T00:06:33.800Z,0.00
2023-03-01T00:07:33.607Z,0.00
2023-03-01T00:08:33.597Z,0.00
2023-03-01T00:09:33.578Z,0.00
2023-03-01T00:10:33.564Z,0.00
2023-03-01T00:11:33.544Z,0.00
2023-03-01T00:12:33.532Z,0.00
2023-03-01T00:13:33.538Z,0.00
2023-03-01T00:14:33.500Z,0.00
2023-03-01T00:15:33.482Z,0.00
2023-03-01T00:16:33.701Z,0.00
2023-03-01T00:17:33.449Z,0.00
2023-03-01T00:18:33.435Z,0.00
2023-03-01T00:19:33.430Z,0.00
2023-03-01T00:20:33.402Z,0.00
2023-03-01T00:21:33.431Z,0.00
2023-03-01T00:22:33.375Z,0.00
2023-03-01T00:23:33.356Z,0.00
2023-03-01T00:24:33.343Z,0.00
2023-03-01T00:25:33.325Z,0.00
2023-03-01T00:26:33.429Z,0.00
2023-03-01T00:27:33.298Z,0.00
2023-03-01T00:28:33.285Z,0.00
2023-03-01T00:29:33.262Z,0.00
2023-03-01T00:30:33.277Z,0.00
2023-03-01T00:31:33.248Z,0.00
2023-03-01T00:32:33.217Z,0.00
2023-03-01T00:33:33.201Z,0.00
2023-03-01T00:34:33.182Z,0.00
2023-03-01T00:35:33.206Z,0.00
2023-03-01T00:36:33.553Z,0.00
2023-03-01T00:37:33.147Z,0.00
2023-03-01T00:38:33.124Z,0.00
2023-03-01T00:39:33.108Z,0.00
2023-03-01T00:40:33.090Z,0.00
2023-03-01T00:41:33.102Z,0.00
2023-03-01T00:42:33.068Z,0.00
2023-03-01T00:43:33.048Z,0.00
2023-03-01T00:44:33.028Z,0.00
2023-03-01T00:45:33.013Z,0.00
2023-03-01T00:46:33.468Z,0.00
2023-03-01T00:47:32.979Z,0.00
2023-03-01T00:48:32.966Z,0.00
2023-03-01T00:49:32.958Z,0.00
2023-03-01T00:50:32.935Z,0.00
2023-03-01T00:51:32.931Z,0.00
2023-03-01T00:52:32.908Z,0.00
2023-03-01T00:53:32.894Z,0.00
2023-03-01T00:54:32.877Z,0.00
2023-03-01T00:55:32.860Z,0.00
2023-03-01T00:56:33.280Z,0.00
2023-03-01T00:57:32.824Z,0.00
2023-03-01T00:58:32.810Z,0.00
2023-03-01T00:59:32.794Z,0.00
2023-03-01T01:00:32.776Z,0.00
2023-03-01T01:01:32.837Z,0.00
2023-03-01T01:02:32.805Z,0.00
2023-03-01T01:03:32.730Z,0.00
2023-03-01T01:04:32.714Z,0.00
2023-03-01T01:05:32.699Z,0.00
2023-03-01T01:06:33.078Z,0.00
2023-03-01T01:07:32.666Z,0.00
2023-03-01T01:08:32.647Z,0.00
2023-03-01T01:09:32.640Z,0.00
2023-03-01T01:10:32.615Z,0.00
2023-03-01T01:11:32.625Z,0.00
2023-03-01T01:12:32.585Z,0.00
2023-03-01T01:13:32.570Z,0.00
2023-03-01T01:14:32.552Z,0.00
2023-03-01T01:15:32.561Z,0.00
2023-03-01T01:16:32.956Z,0.00
2023-03-01T01:17:32.503Z,0.00
2023-03-01T01:18:32.487Z,0.00
2023-03-01T01:19:32.472Z,0.00
2023-03-01T01:20:32.479Z,0.00
2023-03-01T01:21:32.446Z,0.00
2023-03-01T01:22:32.425Z,0.00
2023-03-01T01:23:32.423Z,0.00
2023-03-01T01:24:32.388Z,0.00
2023-03-01T01:25:32.372Z,0.00
2023-03-01T01:26:32.850Z,0.00
2023-03-01T01:27:32.345Z,0.00
2023-03-01T01:28:32.332Z,0.00
2023-03-01T01:29:32.308Z,0.00
2023-03-01T01:30:32.307Z,0.00
2023-03-01T01:31:32.387Z,0.00
2023-03-01T01:32:32.322Z,0.00
2023-03-01T01:33:32.257Z,0.00
2023-03-01T01:34:32.236Z,0.00
2023-03-01T01:35:32.263Z,0.00
2023-03-01T01:36:32.721Z,0.00
2023-03-01T01:37:32.186Z,0.00
2023-03-01T01:38:32.173Z,0.00
2023-03-01T01:39:32.152Z,0.00
2023-03-01T01:40:32.144Z,0.00
2023-03-01T01:41:32.116Z,0.00
2023-03-01T01:42:32.103Z,0.00
2023-03-01T01:43:32.085Z,0.00
2023-03-01T01:44:32.077Z,0.00
2023-03-01T01:45:32.055Z,0.00
2023-03-01T01:46:32.582Z,0.00
2023-03-01T01:47:32.083Z,0.00
2023-03-01T01:48:32.004Z,0.00
2023-03-01T01:49:31.993Z,0.00
2023-03-01T01:50:31.973Z,0.00
2023-03-01T01:51:31.958Z,0.00
2023-03-01T01:52:31.942Z,0.00
2023-03-01T01:53:31.926Z,0.00
2023-03-01T01:54:31.909Z,0.00
2023-03-01T01:55:31.894Z,0.00
2023-03-01T01:56:32.324Z,0.00
2023-03-01T01:57:31.860Z,0.00
2023-03-01T01:58:31.869Z,0.00
2023-03-01T01:59:31.830Z,0.00
2023-03-01T02:00:31.817Z,0.00
2023-03-01T02:01:31.799Z,0.00
2023-03-01T02:02:31.825Z,0.00
2023-03-01T02:03:31.880Z,0.00
2023-03-01T02:04:31.748Z,0.00
2023-03-01T02:05:31.742Z,0.00
2023-03-01T02:06:32.038Z,0.00
2023-03-01T02:07:31.702Z,0.00
2023-03-01T02:08:31.690Z,0.00
2023-03-01T02:09:31.672Z,0.00
2023-03-01T02:10:31.656Z,0.00
2023-03-01T02:11:31.640Z,0.00
2023-03-01T02:12:31.618Z,0.00
2023-03-01T02:13:31.609Z,0.00
2023-03-01T02:14:31.588Z,0.00
2023-03-01T02:15:31.579Z,0.00
2023-03-01T02:16:32.057Z,0.00
2023-03-01T02:17:31.541Z,0.00
2023-03-01T02:18:31.526Z,0.00
2023-03-01T02:19:31.510Z,0.00
2023-03-01T02:20:31.502Z,0.00
2023-03-01T02:21:31.473Z,0.00
2023-03-01T02:22:31.520Z,0.00
2023-03-01T02:23:31.445Z,0.00
2023-03-01T02:24:31.433Z,0.00
2023-03-01T02:25:31.412Z,0.00
2023-03-01T02:26:31.695Z,0.00
2023-03-01T02:27:31.382Z,0.00
2023-03-01T02:28:31.364Z,0.00
2023-03-01T02:29:31.363Z,0.00
2023-03-01T02:30:31.334Z,0.00
2023-03-01T02:31:31.360Z,0.00
2023-03-01T02:32:31.302Z,0.00
2023-03-01T02:33:31.282Z,0.00
2023-03-01T02:34:31.272Z,0.00
2023-03-01T02:35:31.266Z,0.00
2023-03-01T02:36:31.551Z,0.00
2023-03-01T02:37:31.222Z,0.00
2023-03-01T02:38:31.205Z,0.00
2023-03-01T02:39:31.192Z,0.00
2023-03-01T02:40:31.175Z,0.00
2023-03-01T02:41:31.160Z,0.00
2023-03-01T02:42:31.142Z,0.00
2023-03-01T02:43:31.133Z,0.00
2023-03-01T02:44:31.109Z,0.00
2023-03-01T02:45:31.100Z,0.00
2023-03-01T02:46:31.431Z,0.00
2023-03-01T02:47:31.066Z,0.00
2023-03-01T02:48:31.049Z,0.00
2023-03-01T02:49:31.033Z,0.00
2023-03-01T02:50:31.018Z,0.00
2023-03-01T02:51:30.998Z,0.00
2023-03-01T02:52:30.993Z,0.00
2023-03-01T02:53:30.965Z,0.00
2023-03-01T02:54:30.949Z,0.00
2023-03-01T02:55:30.936Z,0.00
2023-03-01T02:56:31.250Z,0.00
2023-03-01T02:57:30.911Z,0.00
2023-03-01T02:58:30.886Z,0.00
2023-03-01T02:59:30.873Z,0.00
2023-03-01T03:00:30.890Z,0.00
2023-03-01T03:01:30.836Z,0.00
2023-03-01T03:02:30.823Z,0.00
2023-03-01T03:03:30.878Z,0.00
2023-03-01T03:04:30.789Z,0.00
2023-03-01T03:05:30.775Z,0.00
2023-03-01T03:06:31.133Z,0.00
2023-03-01T03:07:30.742Z,0.00
2023-03-01T03:08:30.764Z,0.00
2023-03-01T03:09:30.718Z,0.00
2023-03-01T03:10:30.692Z,0.00
2023-03-01T03:11:30.680Z,0.00
2023-03-01T03:12:30.661Z,0.00
2023-03-01T03:13:30.648Z,0.00
2023-03-01T03:14:30.626Z,0.00
2023-03-01T03:15:30.612Z,0.00
2023-03-01T03:16:30.933Z,0.00
2023-03-01T03:17:30.582Z,0.00
2023-03-01T03:18:30.564Z,0.00
2023-03-01T03:19:30.568Z,0.00
2023-03-01T03:20:30.533Z,0.00
2023-03-01T03:21:30.561Z,0.00
2023-03-01T03:22:30.501Z,0.00
2023-03-01T03:23:30.486Z,0.00
2023-03-01T03:24:30.465Z,0.00
2023-03-01T03:25:30.484Z,0.00
2023-03-01T03:26:30.815Z,0.00
2023-03-01T03:27:30.417Z,0.00
2023-03-01T03:28:30.413Z,0.00
2023-03-01T03:29:30.385Z,0.00
2023-03-01T03:30:30.379Z,0.00
2023-03-01T03:31:30.402Z,0.00
2023-03-01T03:32:30.371Z,0.00
2023-03-01T03:33:30.314Z,0.00
2023-03-01T03:34:30.306Z,0.00
2023-03-01T03:35:30.389Z,0.00
2023-03-01T03:36:30.504Z,0.00
2023-03-01T03:37:30.253Z,0.00
2023-03-01T03:38:30.238Z,0.00
2023-03-01T03:39:30.223Z,0.00
2023-03-01T03:40:30.205Z,0.00
2023-03-01T03:41:30.189Z,0.00
2023-03-01T03:42:30.175Z,0.00
2023-03-01T03:43:30.159Z,0.00
2023-03-01T03:44:30.146Z,0.00
2023-03-01T03:45:30.156Z,0.00
2023-03-01T03:46:30.108Z,0.00
2023-03-01T03:47:30.091Z,0.00
2023-03-01T03:48:30.076Z,0.00
2023-03-01T03:49:30.070Z,0.00
2023-03-01T03:50:30.047Z,0.00
2023-03-01T03:51:30.058Z,0.00
2023-03-01T03:52:30.012Z,0.00
2023-03-01T03:53:29.994Z,0.00
2023-03-01T03:54:29.977Z,0.00
2023-03-01T03:55:29.962Z,0.00
2023-03-01T03:56:30.424Z,0.00
2023-03-01T03:57:29.930Z,0.00
2023-03-01T03:58:29.921Z,0.00
2023-03-01T03:59:29.909Z,0.00
2023-03-01T04:00:29.902Z,0.00
2023-03-01T04:01:29.911Z,0.00
2023-03-01T04:02:29.896Z,0.00
2023-03-01T04:03:29.847Z,0.00
2023-03-01T04:04:29.822Z,0.00
2023-03-01T04:05:29.800Z,0.00
2023-03-01T04:06:30.104Z,0.00
2023-03-01T04:07:29.767Z,0.00
2023-03-01T04:08:29.750Z,0.00
2023-03-01T04:09:29.740Z,0.00
2023-03-01T04:10:29.726Z,0.00
2023-03-01T04:11:29.730Z,0.00
2023-03-01T04:12:29.686Z,0.00
2023-03-01T04:13:29.683Z,0.00
2023-03-01T04:14:29.659Z,0.00
2023-03-01T04:15:29.665Z,0.00
2023-03-01T04:16:30.163Z,0.00
2023-03-01T04:17:29.604Z,0.00
2023-03-01T04:18:29.595Z,0.00
2023-03-01T04:19:29.575Z,0.00
2023-03-01T04:20:29.554Z,0.00
2023-03-01T04:21:29.540Z,0.00
2023-03-01T04:22:29.525Z,0.00
2023-03-01T04:23:29.508Z,0.00
2023-03-01T04:24:29.492Z,0.00
2023-03-01T04:25:29.477Z,0.00
2023-03-01T04:26:29.763Z,0.00
2023-03-01T04:27:29.441Z,0.00
2023-03-01T04:28:29.427Z,0.00
2023-03-01T04:29:29.411Z,0.00
2023-03-01T04:30:29.394Z,0.00
2023-03-01T04:31:29.425Z,0.00
2023-03-01T04:32:29.382Z,0.00
2023-03-01T04:33:29.346Z,0.00
2023-03-01T04:34:29.325Z,0.00
2023-03-01T04:35:29.381Z,0.00
2023-03-01T04:36:29.566Z,0.00
2023-03-01T04:37:29.287Z,0.00
2023-03-01T04:38:29.267Z,0.00
2023-03-01T04:39:29.249Z,0.00
2023-03-01T04:40:29.232Z,0.00
2023-03-01T04:41:29.219Z,0.00
2023-03-01T04:42:29.201Z,0.00
2023-03-01T04:43:29.199Z,0.00
2023-03-01T04:44:29.167Z,0.00
2023-03-01T04:45:29.149Z,0.00
2023-03-01T04:46:29.593Z,0.00
2023-03-01T04:47:29.117Z,0.00
2023-03-01T04:48:29.114Z,0.00
2023-03-01T04:49:29.085Z,0.00
2023-03-01T04:50:29.071Z,0.00
2023-03-01T04:51:29.057Z,0.00
2023-03-01T04:52:29.033Z,0.00
2023-03-01T04:53:29.019Z,0.00
2023-03-01T04:54:29.004Z,0.00
2023-03-01T04:55:28.992Z,0.00
2023-03-01T04:56:29.246Z,0.00
2023-03-01T04:57:28.955Z,0.00
2023-03-01T04:58:28.938Z,0.00
2023-03-01T04:59:28.932Z,0.00
2023-03-01T05:00:28.920Z,0.00
2023-03-01T05:01:28.891Z,0.00
2023-03-01T05:02:28.879Z,0.00
2023-03-01T05:03:28.866Z,0.00
2023-03-01T05:04:28.875Z,0.00
2023-03-01T05:05:28.836Z,0.00
2023-03-01T05:06:29.096Z,0.00
2023-03-01T05:07:28.805Z,0.00
2023-03-01T05:08:28.790Z,0.00
2023-03-01T05:09:28.755Z,0.00
2023-03-01T05:10:28.760Z,0.00
2023-03-01T05:11:28.730Z,0.00
2023-03-01T05:12:28.712Z,0.00
2023-03-01T05:13:28.690Z,0.00
2023-03-01T05:14:28.677Z,0.00
2023-03-01T05:15:28.662Z,0.00
2023-03-01T05:16:28.965Z,0.00
2023-03-01T05:17:28.626Z,0.00
2023-03-01T05:18:28.623Z,0.00
2023-03-01T05:19:28.594Z,0.00
2023-03-01T05:20:28.576Z,0.00
2023-03-01T05:21:28.561Z,0.00
2023-03-01T05:22:28.545Z,0.00
2023-03-01T05:23:28.531Z,0.00
2023-03-01T05:24:28.517Z,0.00
2023-03-01T05:25:28.497Z,0.00
2023-03-01T05:26:28.957Z,4.00
2023-03-01T05:27:28.464Z,4.00
2023-03-01T05:28:28.445Z,0.00
2023-03-01T05:29:28.437Z,4.00
2023-03-01T05:30:28.408Z,4.00
2023-03-01T05:31:28.491Z,4.00
2023-03-01T05:32:28.384Z,8.00
2023-03-01T05:33:28.364Z,8.00
2023-03-01T05:34:28.352Z,8.00
2023-03-01T05:35:28.365Z,8.00
2023-03-01T05:36:28.331Z,12.00
2023-03-01T05:37:28.304Z,16.00
2023-03-01T05:38:28.282Z,16.00
2023-03-01T05:39:28.262Z,20.00
2023-03-01T05:40:28.250Z,24.00
2023-03-01T05:41:28.229Z,28.00
2023-03-01T05:42:28.212Z,32.00
2023-03-01T05:43:28.199Z,36.00
2023-03-01T05:44:28.179Z,44.00
2023-03-01T05:45:28.176Z,44.00
2023-03-01T05:46:28.541Z,52.00
2023-03-01T05:47:28.138Z,60.00
2023-03-01T05:48:28.115Z,68.00
2023-03-01T05:49:28.101Z,76.00
2023-03-01T05:50:28.101Z,84.00
2023-03-01T05:51:28.068Z,92.00
2023-03-01T05:52:28.045Z,104.00
2023-03-01T05:53:28.031Z,116.00
2023-03-01T05:54:28.021Z,128.00
2023-03-01T05:55:29.092Z,140.00
2023-03-01T05:56:28.227Z,152.00
2023-03-01T05:57:27.996Z,168.00
2023-03-01T05:58:27.959Z,180.00
2023-03-01T05:59:27.935Z,204.00
2023-03-01T06:00:27.919Z,216.00
2023-03-01T06:01:27.902Z,240.00
2023-03-01T06:02:27.892Z,256.00
2023-03-01T06:03:27.878Z,280.00
2023-03-01T06:04:27.901Z,304.00
2023-03-01T06:05:27.940Z,332.00
2023-03-01T06:06:29.148Z,364.00
2023-03-01T06:07:27.801Z,396.00
2023-03-01T06:08:27.802Z,432.00
2023-03-01T06:09:27.775Z,464.00
2023-03-01T06:10:27.758Z,500.00
2023-03-01T06:11:27.743Z,532.00
2023-03-01T06:12:27.722Z,568.00
2023-03-01T06:13:27.720Z,604.00
2023-03-01T06:14:27.705Z,640.00
2023-03-01T06:15:27.683Z,676.00
2023-03-01T06:16:27.751Z,712.00
2023-03-01T06:17:27.645Z,748.00
2023-03-01T06:18:27.624Z,780.00
2023-03-01T06:19:27.616Z,816.00
2023-03-01T06:20:27.591Z,848.00
2023-03-01T06:21:27.578Z,864.00
2023-03-01T06:22:27.569Z,880.00
2023-03-01T06:23:27.541Z,912.00
2023-03-01T06:24:27.543Z,940.00
2023-03-01T06:25:27.512Z,952.00
2023-03-01T06:26:27.494Z,988.00
2023-03-01T06:27:27.485Z,1012.00
2023-03-01T06:28:27.466Z,1012.00
2023-03-01T06:29:27.449Z,1020.00
2023-03-01T06:30:27.438Z,1036.00
2023-03-01T06:31:27.453Z,1060.00
2023-03-01T06:32:27.478Z,1084.00
2023-03-01T06:33:27.381Z,1108.00
2023-03-01T06:34:27.368Z,1132.00
2023-03-01T06:35:27.380Z,1160.00
2023-03-01T06:36:27.331Z,1208.00
2023-03-01T06:37:27.331Z,1256.00
2023-03-01T06:38:27.311Z,1312.00
2023-03-01T06:39:27.279Z,1388.00
2023-03-01T06:40:27.261Z,1452.00
2023-03-01T06:41:27.246Z,1552.00
2023-03-01T06:42:27.230Z,1792.00
2023-03-01T06:43:27.236Z,1904.00
2023-03-01T06:44:27.380Z,1868.00
2023-03-01T06:45:27.191Z,1812.00
2023-03-01T06:46:27.239Z,1792.00
2023-03-01T06:47:27.155Z,1688.00
2023-03-01T06:48:27.132Z,1568.00
2023-03-01T06:49:27.130Z,1560.00
2023-03-01T06:50:27.152Z,1572.00
2023-03-01T06:51:27.101Z,1588.00
2023-03-01T06:52:27.086Z,1600.00
2023-03-01T06:53:27.059Z,1604.00
2023-03-01T06:54:27.060Z,1604.00
2023-03-01T06:55:27.033Z,1616.00
2023-03-01T06:56:27.039Z,1636.00
2023-03-01T06:57:27.044Z,1660.00
2023-03-01T06:58:26.994Z,1676.00
2023-03-01T06:59:26.966Z,1684.00
2023-03-01T07:00:26.982Z,1684.00
2023-03-01T07:01:26.950Z,1676.00
2023-03-01T07:02:26.951Z,1660.00
2023-03-01T07:03:26.901Z,1644.00
2023-03-01T07:04:26.879Z,1632.00
2023-03-01T07:05:26.867Z,1616.00
2023-03-01T07:06:26.849Z,1612.00
2023-03-01T07:07:26.830Z,1612.00
2023-03-01T07:08:26.815Z,1620.00
2023-03-01T07:09:26.804Z,1628.00
2023-03-01T07:10:26.793Z,1640.00
2023-03-01T07:11:26.777Z,1648.00
2023-03-01T07:12:26.756Z,1668.00
2023-03-01T07:13:26.745Z,1684.00
2023-03-01T07:14:26.743Z,1692.00
2023-03-01T07:15:26.715Z,1700.00
2023-03-01T07:16:26.797Z,1708.00
2023-03-01T07:17:26.683Z,1716.00
2023-03-01T07:18:26.663Z,1728.00
2023-03-01T07:19:26.648Z,1736.00
2023-03-01T07:20:26.854Z,1740.00
2023-03-01T07:21:26.613Z,1752.00
2023-03-01T07:22:26.602Z,1764.00
2023-03-01T07:23:26.585Z,1772.00
2023-03-01T07:24:26.568Z,1776.00
2023-03-01T07:25:26.556Z,1784.00
2023-03-01T07:26:26.538Z,1784.00
2023-03-01T07:27:26.525Z,1788.00
2023-03-01T07:28:26.503Z,1792.00
2023-03-01T07:29:26.494Z,1792.00
2023-03-01T07:30:26.477Z,1792.00
2023-03-01T07:31:26.462Z,1792.00
2023-03-01T07:32:26.502Z,1788.00
2023-03-01T07:33:26.451Z,1788.00
2023-03-01T07:34:26.409Z,1792.00
2023-03-01T07:35:26.432Z,1792.00
2023-03-01T07:36:26.406Z,1796.00
2023-03-01T07:37:26.370Z,1800.00
2023-03-01T07:38:26.353Z,1804.00
2023-03-01T07:39:26.337Z,1812.00
2023-03-01T07:40:26.330Z,1808.00
2023-03-01T07:41:26.311Z,1816.00
2023-03-01T07:42:26.289Z,1824.00
2023-03-01T07:43:26.268Z,1832.00
2023-03-01T07:44:26.266Z,1840.00
2023-03-01T07:45:26.276Z,1844.00
2023-03-01T07:46:26.237Z,1844.00
2023-03-01T07:47:26.217Z,1844.00
2023-03-01T07:48:26.194Z,1852.00
2023-03-01T07:49:26.193Z,1852.00
2023-03-01T07:50:26.163Z,1860.00
2023-03-01T07:51:26.157Z,1864.00
2023-03-01T07:52:26.135Z,1876.00
2023-03-01T07:53:26.116Z,1876.00
2023-03-01T07:54:26.114Z,1880.00
2023-03-01T07:55:26.090Z,1892.00
2023-03-01T07:56:26.075Z,1900.00
2023-03-01T07:57:26.055Z,1904.00
2023-03-01T07:58:26.041Z,1908.00
2023-03-01T07:59:26.028Z,1912.00
2023-03-01T08:00:26.010Z,1920.00
2023-03-01T08:01:26.057Z,1932.00
2023-03-01T08:02:25.985Z,1940.00
2023-03-01T08:03:25.972Z,1952.00
2023-03-01T08:04:25.947Z,1964.00
2023-03-01T08:05:25.933Z,1972.00
2023-03-01T08:06:25.918Z,1996.00
2023-03-01T08:07:25.910Z,2012.00
2023-03-01T08:08:25.888Z,2028.00
2023-03-01T08:09:25.871Z,2036.00
2023-03-01T08:10:25.865Z,2048.00
2023-03-01T08:11:25.884Z,2068.00
2023-03-01T08:12:25.828Z,2084.00
2023-03-01T08:13:25.811Z,2112.00
2023-03-01T08:14:25.798Z,2144.00
2023-03-01T08:15:25.782Z,2192.00
2023-03-01T08:16:25.835Z,2232.00
2023-03-01T08:17:25.757Z,2276.00
2023-03-01T08:18:25.738Z,2300.00
2023-03-01T08:19:25.722Z,2316.00
2023-03-01T08:20:25.789Z,2328.00
2023-03-01T08:21:25.686Z,2336.00
2023-03-01T08:22:25.680Z,2344.00
2023-03-01T08:23:25.664Z,2340.00
2023-03-01T08:24:25.650Z,2360.00
2023-03-01T08:25:25.628Z,2376.00
2023-03-01T08:26:25.623Z,2396.00
2023-03-01T08:27:25.747Z,2412.00
2023-03-01T08:28:25.586Z,2424.00
2023-03-01T08:29:25.584Z,2444.00
2023-03-01T08:30:25.570Z,2456.00
2023-03-01T08:31:25.624Z,2444.00
2023-03-01T08:32:25.549Z,2460.00
2023-03-01T08:33:25.549Z,2464.00
2023-03-01T08:34:25.492Z,2460.00
2023-03-01T08:35:25.501Z,2436.00
2023-03-01T08:36:25.480Z,2408.00
2023-03-01T08:37:25.472Z,2388.00
2023-03-01T08:38:25.439Z,2388.00
2023-03-01T08:39:25.510Z,2404.00
2023-03-01T08:40:25.470Z,2400.00
2023-03-01T08:41:25.401Z,2388.00
2023-03-01T08:42:25.392Z,2384.00
2023-03-01T08:43:26.356Z,2380.00
2023-03-01T08:44:25.355Z,2384.00
2023-03-01T08:45:25.346Z,2384.00
2023-03-01T08:46:25.328Z,2376.00
2023-03-01T08:47:25.313Z,2368.00
2023-03-01T08:48:25.300Z,2348.00
2023-03-01T08:49:25.282Z,2324.00
2023-03-01T08:50:25.276Z,2296.00
2023-03-01T08:51:25.258Z,2260.00
2023-03-01T08:52:25.242Z,2216.00
2023-03-01T08:53:25.227Z,2180.00
2023-03-01T08:54:25.213Z,2148.00
2023-03-01T08:55:25.204Z,2124.00
2023-03-01T08:56:25.185Z,2104.00
2023-03-01T08:57:25.170Z,2092.00
2023-03-01T08:58:25.151Z,2088.00
2023-03-01T08:59:25.142Z,2088.00
2023-03-01T09:00:25.133Z,2084.00
2023-03-01T09:01:25.116Z,2080.00
2023-03-01T09:02:25.136Z,2076.00
2023-03-01T09:03:25.316Z,2068.00
2023-03-01T09:04:25.075Z,2064.00
2023-03-01T09:05:25.052Z,2060.00
2023-03-01T09:06:25.052Z,2052.00
2023-03-01T09:07:25.029Z,2048.00
2023-03-01T09:08:25.034Z,2048.00
2023-03-01T09:09:24.999Z,2052.00
2023-03-01T09:10:24.995Z,2052.00
2023-03-01T09:11:24.981Z,2048.00
2023-03-01T09:12:24.974Z,2048.00
2023-03-01T09:13:24.947Z,2052.00
2023-03-01T09:14:24.931Z,2056.00
2023-03-01T09:15:24.921Z,2060.00
2023-03-01T09:16:24.986Z,2060.00
2023-03-01T09:17:24.899Z,2060.00
2023-03-01T09:18:24.881Z,2056.00
2023-03-01T09:19:27.277Z,2056.00
2023-03-01T09:20:24.852Z,2056.00
2023-03-01T09:21:37.229Z,2056.00
2023-03-01T09:22:24.832Z,2052.00
2023-03-01T09:23:24.810Z,2044.00
2023-03-01T09:24:24.803Z,2044.00
2023-03-01T09:25:24.785Z,2036.00
2023-03-01T09:26:24.777Z,2028.00
2023-03-01T09:27:24.769Z,2024.00
2023-03-01T09:28:30.121Z,2020.00
2023-03-01T09:29:24.760Z,2024.00
2023-03-01T09:30:24.716Z,2024.00
2023-03-01T09:31:24.704Z,2032.00
2023-03-01T09:32:24.722Z,2032.00
2023-03-01T09:33:24.674Z,2040.00
2023-03-01T09:34:24.662Z,2044.00
2023-03-01T09:35:24.666Z,2052.00
2023-03-01T09:36:24.637Z,2056.00
2023-03-01T09:37:24.622Z,2068.00
2023-03-01T09:38:25.977Z,2084.00
2023-03-01T09:39:24.606Z,2104.00
2023-03-01T09:40:24.580Z,2124.00
2023-03-01T09:41:24.568Z,2156.00
2023-03-01T09:42:24.554Z,2180.00
2023-03-01T09:43:24.540Z,2212.00
2023-03-01T09:44:24.527Z,2240.00
2023-03-01T09:45:24.512Z,2272.00
2023-03-01T09:46:24.521Z,2304.00
2023-03-01T09:47:24.490Z,2344.00
2023-03-01T09:48:24.479Z,2392.00
2023-03-01T09:49:24.470Z,2452.00
2023-03-01T09:50:24.453Z,2508.00
2023-03-01T09:51:24.438Z,2592.00
2023-03-01T09:52:24.467Z,2672.00
2023-03-01T09:53:24.410Z,2748.00
2023-03-01T09:54:24.395Z,2800.00
2023-03-01T09:55:24.382Z,2860.00
2023-03-01T09:56:24.370Z,2916.00
2023-03-01T09:57:24.365Z,2976.00
2023-03-01T09:58:24.343Z,2996.00
2023-03-01T09:59:24.338Z,2968.00
2023-03-01T10:00:24.358Z,2908.00
2023-03-01T10:01:24.304Z,2816.00
2023-03-01T10:02:24.356Z,2744.00
2023-03-01T10:03:24.275Z,2720.00
2023-03-01T10:04:24.294Z,2732.00
2023-03-01T10:05:24.251Z,2744.00
2023-03-01T10:06:34.468Z,2712.00
2023-03-01T10:07:24.229Z,2704.00
2023-03-01T10:08:24.215Z,2660.00
2023-03-01T10:09:24.205Z,2640.00
2023-03-01T10:10:24.184Z,2616.00
2023-03-01T10:11:25.324Z,2548.00
2023-03-01T10:12:24.164Z,2492.00
2023-03-01T10:13:24.151Z,2424.00
2023-03-01T10:14:24.143Z,2396.00
2023-03-01T10:15:24.125Z,2412.00
2023-03-01T10:16:24.115Z,2376.00
2023-03-01T10:17:24.103Z,2340.00
2023-03-01T10:18:24.093Z,2336.00
2023-03-01T10:19:24.074Z,2272.00
2023-03-01T10:20:24.067Z,2252.00
2023-03-01T10:21:24.049Z,2236.00
2023-03-01T10:22:24.047Z,2236.00
2023-03-01T10:23:24.026Z,2212.00
2023-03-01T10:24:24.012Z,2196.00
2023-03-01T10:25:24.003Z,2176.00
2023-03-01T10:26:23.986Z,2152.00
2023-03-01T10:27:23.981Z,2124.00
2023-03-01T10:28:23.966Z,2096.00
2023-03-01T10:29:23.963Z,2072.00
2023-03-01T10:30:23.940Z,2064.00
2023-03-01T10:31:23.948Z,2060.00
2023-03-01T10:32:25.178Z,2056.00
2023-03-01T10:33:23.898Z,2056.00
2023-03-01T10:34:23.887Z,2056.00
2023-03-01T10:35:23.874Z,2060.00
2023-03-01T10:36:23.865Z,2068.00
2023-03-01T10:37:23.848Z,2072.00
2023-03-01T10:38:23.836Z,2080.00
2023-03-01T10:39:23.826Z,2084.00
2023-03-01T10:40:23.812Z,2092.00
2023-03-01T10:41:23.805Z,2096.00
2023-03-01T10:42:23.789Z,2108.00
2023-03-01T10:43:23.776Z,2112.00
2023-03-01T10:44:23.761Z,2120.00
2023-03-01T10:45:25.791Z,2124.00
2023-03-01T10:46:23.761Z,2132.00
2023-03-01T10:47:23.724Z,2144.00
2023-03-01T10:48:23.718Z,2160.00
2023-03-01T10:49:23.704Z,2188.00
2023-03-01T10:50:23.705Z,2220.00
2023-03-01T10:51:23.680Z,2252.00
2023-03-01T10:52:23.665Z,2268.00
2023-03-01T10:53:23.653Z,2272.00
2023-03-01T10:54:23.639Z,2264.00
2023-03-01T10:55:23.625Z,2264.00
2023-03-01T10:56:23.617Z,2276.00
2023-03-01T10:57:23.599Z,2272.00
2023-03-01T10:58:23.591Z,2244.00
2023-03-01T10:59:23.575Z,2232.00
2023-03-01T11:00:23.568Z,2220.00
2023-03-01T11:01:23.576Z,2208.00
2023-03-01T11:02:25.432Z,2196.00
2023-03-01T11:03:23.534Z,2184.00
2023-03-01T11:04:23.559Z,2184.00
2023-03-01T11:05:23.509Z,2192.00
2023-03-01T11:06:23.498Z,2188.00
2023-03-01T11:07:23.487Z,2192.00
2023-03-01T11:08:23.465Z,2180.00
2023-03-01T11:09:23.456Z,2176.00
2023-03-01T11:10:23.442Z,2160.00
2023-03-01T11:11:23.428Z,2144.00
2023-03-01T11:12:23.420Z,2124.00
2023-03-01T11:13:23.410Z,2148.00
2023-03-01T11:14:27.399Z,2160.00
2023-03-01T11:15:23.382Z,2168.00
2023-03-01T11:16:23.389Z,2176.00
2023-03-01T11:17:23.362Z,2192.00
2023-03-01T11:18:30.987Z,2208.00
2023-03-01T11:19:23.335Z,2220.00
2023-03-01T11:20:24.715Z,2260.00
2023-03-01T11:21:23.318Z,2284.00
2023-03-01T11:22:23.413Z,2312.00
2023-03-01T11:23:23.283Z,2332.00
2023-03-01T11:24:23.275Z,2336.00
2023-03-01T11:25:23.262Z,2332.00
2023-03-01T11:26:23.250Z,2324.00
2023-03-01T11:27:23.240Z,2312.00
2023-03-01T11:28:23.225Z,2300.00
2023-03-01T11:29:23.217Z,2288.00
2023-03-01T11:30:23.215Z,2272.00
2023-03-01T11:31:23.222Z,2256.00
2023-03-01T11:32:23.389Z,2240.00
2023-03-01T11:33:23.165Z,2224.00
2023-03-01T11:34:23.151Z,2208.00
2023-03-01T11:35:23.144Z,2192.00
2023-03-01T11:36:23.172Z,2168.00
2023-03-01T11:37:23.145Z,2136.00
2023-03-01T11:38:23.124Z,2104.00
2023-03-01T11:39:23.093Z,2072.00
2023-03-01T11:40:23.086Z,2040.00
2023-03-01T11:41:23.069Z,2012.00
2023-03-01T11:42:23.059Z,1976.00
2023-03-01T11:43:23.052Z,1940.00
2023-03-01T11:44:23.034Z,1936.00
2023-03-01T11:45:23.038Z,1928.00
2023-03-01T11:46:23.075Z,1912.00
2023-03-01T11:47:23.141Z,1916.00
2023-03-01T11:48:22.989Z,1932.00
2023-03-01T11:49:22.981Z,1940.00
2023-03-01T11:50:22.964Z,1948.00
2023-03-01T11:51:22.988Z,1952.00
2023-03-01T11:52:22.941Z,1928.00
2023-03-01T11:53:22.952Z,1940.00
2023-03-01T11:54:22.924Z,1960.00
2023-03-01T11:55:22.945Z,1992.00
2023-03-01T11:56:24.017Z,2016.00
2023-03-01T11:57:26.931Z,2040.00
2023-03-01T11:58:22.877Z,2040.00
2023-03-01T11:59:22.866Z,2064.00
2023-03-01T12:00:22.847Z,2064.00
2023-03-01T12:01:22.839Z,2068.00
2023-03-01T12:02:22.930Z,2072.00
2023-03-01T12:03:22.816Z,2072.00
2023-03-01T12:04:22.895Z,2080.00
2023-03-01T12:05:22.791Z,2096.00
2023-03-01T12:06:22.782Z,2104.00
2023-03-01T12:07:22.778Z,2112.00
2023-03-01T12:08:22.762Z,2128.00
2023-03-01T12:09:22.754Z,2136.00
2023-03-01T12:10:22.816Z,2140.00
2023-03-01T12:11:22.734Z,2140.00
2023-03-01T12:12:22.730Z,2168.00
2023-03-01T12:13:22.710Z,2188.00
2023-03-01T12:14:22.726Z,2204.00
2023-03-01T12:15:22.684Z,2216.00
2023-03-01T12:16:36.336Z,2212.00
2023-03-01T12:17:22.660Z,2240.00
2023-03-01T12:18:22.647Z,2240.00
2023-03-01T12:19:22.638Z,2256.00
2023-03-01T12:20:22.641Z,2220.00
2023-03-01T12:21:22.613Z,2216.00
2023-03-01T12:22:22.608Z,2164.00
2023-03-01T12:23:22.591Z,2072.00
2023-03-01T12:24:22.580Z,2044.00
2023-03-01T12:25:22.566Z,2000.00
2023-03-01T12:26:22.565Z,1972.00
2023-03-01T12:27:22.548Z,1936.00
2023-03-01T12:28:22.530Z,1932.00
2023-03-01T12:29:22.520Z,1948.00
2023-03-01T12:30:22.518Z,1956.00
2023-03-01T12:31:22.558Z,1960.00
2023-03-01T12:32:22.640Z,1964.00
2023-03-01T12:33:22.489Z,1952.00
2023-03-01T12:34:22.474Z,1956.00
2023-03-01T12:35:22.453Z,1952.00
2023-03-01T12:36:22.508Z,1948.00
2023-03-01T12:37:22.455Z,1960.00
2023-03-01T12:38:22.431Z,1980.00